createdAt,value
2017-07-28T00:00:42.751Z,0
2017-07-28T00:01:44.130Z,0
2017-07-28T00:02:45.508Z,0
2017-07-28T00:03:46.923Z,0
2017-07-28T00:04:48.301Z,0
2017-07-28T00:05:49.683Z,0
2017-07-28T00:07:32.064Z,0
2017-07-28T00:08:33.429Z,0
2017-07-28T00:09:34.806Z,0
2017-07-28T00:10:36.182Z,0
2017-07-28T00:11:37.581Z,0
2017-07-28T00:12:38.959Z,0
2017-07-28T00:13:40.339Z,0
2017-07-28T00:14:41.719Z,0
2017-07-28T00:15:43.090Z,0
2017-07-28T00:16:44.468Z,0
2017-07-28T00:17:45.845Z,0
2017-07-28T00:18:47.228Z,0
2017-07-28T00:19:48.609Z,0
2017-07-28T00:20:49.997Z,0
2017-07-28T00:21:51.376Z,0
2017-07-28T00:22:52.757Z,0
2017-07-28T00:24:35.181Z,0
2017-07-28T00:25:36.571Z,0
2017-07-28T00:26:37.953Z,0
2017-07-28T00:27:39.329Z,0
2017-07-28T00:28:40.713Z,0
2017-07-28T00:29:42.100Z,0
2017-07-28T00:30:43.478Z,0
2017-07-28T00:31:44.854Z,0
2017-07-28T00:32:46.235Z,0
2017-07-28T00:33:47.619Z,0
2017-07-28T00:34:48.987Z,0
2017-07-28T00:35:50.367Z,0
2017-07-28T00:36:51.744Z,0
2017-07-28T00:37:53.121Z,0
2017-07-28T00:39:35.516Z,0
2017-07-28T00:40:36.903Z,0
2017-07-28T00:41:38.271Z,0
2017-07-28T00:42:39.649Z,0
2017-07-28T00:43:41.029Z,0
2017-07-28T00:44:42.408Z,0
2017-07-28T00:45:43.787Z,0
2017-07-28T00:46:45.162Z,0
2017-07-28T00:47:46.538Z,0
2017-07-28T00:48:47.915Z,0
2017-07-28T00:49:49.291Z,0
2017-07-28T00:50:50.670Z,0
2017-07-28T00:51:52.051Z,0
2017-07-28T00:52:53.434Z,0
2017-07-28T00:53:54.813Z,0
2017-07-28T00:54:56.192Z,0
2017-07-28T00:55:57.567Z,0
2017-07-28T00:56:58.943Z,0
2017-07-28T00:58:00.321Z,0
2017-07-28T00:59:01.702Z,0
2017-07-28T01:00:03.086Z,0
2017-07-28T01:01:04.469Z,0
2017-07-28T01:02:05.845Z,0
2017-07-28T01:03:07.232Z,0
2017-07-28T01:04:08.618Z,0
2017-07-28T01:05:09.999Z,0
2017-07-28T01:06:11.374Z,0
2017-07-28T01:07:52.779Z,0
2017-07-28T01:08:54.155Z,0
2017-07-28T01:10:17.154Z,0
2017-07-28T01:11:18.531Z,0
2017-07-28T01:12:19.904Z,0
2017-07-28T01:13:21.284Z,0
2017-07-28T01:14:22.664Z,0
2017-07-28T01:15:24.041Z,0
2017-07-28T01:16:25.418Z,0
2017-07-28T01:17:26.805Z,0
2017-07-28T01:19:09.180Z,0
2017-07-28T01:20:10.555Z,0
2017-07-28T01:21:11.929Z,0
2017-07-28T01:22:13.301Z,0
2017-07-28T01:23:14.680Z,0
2017-07-28T01:24:16.056Z,0
2017-07-28T01:25:17.449Z,0
2017-07-28T01:26:18.821Z,0
2017-07-28T01:27:20.200Z,0
2017-07-28T01:28:21.575Z,0
2017-07-28T01:29:22.952Z,0
2017-07-28T01:30:24.326Z,0
2017-07-28T01:31:25.711Z,0
2017-07-28T01:32:27.106Z,0
2017-07-28T01:33:28.470Z,0
2017-07-28T01:34:29.845Z,0
2017-07-28T01:35:31.222Z,0
2017-07-28T01:36:32.607Z,0
2017-07-28T01:37:33.985Z,0
2017-07-28T01:38:35.362Z,0
2017-07-28T01:39:36.731Z,0
2017-07-28T01:40:38.118Z,0
2017-07-28T01:41:39.494Z,0
2017-07-28T01:42:40.876Z,0
2017-07-28T01:43:42.263Z,0
2017-07-28T01:44:43.643Z,0
2017-07-28T01:45:45.024Z,0
2017-07-28T01:46:46.401Z,0
2017-07-28T01:47:47.789Z,0
2017-07-28T01:48:49.162Z,0
2017-07-28T01:49:50.542Z,0
2017-07-28T01:50:51.919Z,0
2017-07-28T01:51:53.303Z,0
2017-07-28T01:52:54.672Z,0
2017-07-28T01:53:56.050Z,0
2017-07-28T01:54:57.438Z,0
2017-07-28T01:55:58.810Z,0
2017-07-28T01:57:00.188Z,0
2017-07-28T01:58:01.564Z,0
2017-07-28T01:59:02.947Z,0
2017-07-28T02:00:04.331Z,0
2017-07-28T02:01:05.708Z,0
2017-07-28T02:02:07.085Z,0
2017-07-28T02:03:08.463Z,0
2017-07-28T02:04:09.855Z,0
2017-07-28T02:05:11.261Z,0
2017-07-28T02:06:12.650Z,0
2017-07-28T02:07:55.024Z,0
2017-07-28T02:08:56.396Z,0
2017-07-28T02:09:57.770Z,0
2017-07-28T02:10:59.146Z,0
2017-07-28T02:12:00.532Z,0
2017-07-28T02:13:01.911Z,0
2017-07-28T02:14:03.287Z,0
2017-07-28T02:15:04.673Z,0
2017-07-28T02:16:06.049Z,0
2017-07-28T02:17:07.426Z,0
2017-07-28T02:18:08.804Z,0
2017-07-28T02:19:10.183Z,0
2017-07-28T02:20:11.563Z,0
2017-07-28T02:21:12.943Z,0
2017-07-28T02:22:14.330Z,0
2017-07-28T02:23:15.711Z,0
2017-07-28T02:24:17.079Z,0
2017-07-28T02:25:18.456Z,0
2017-07-28T02:26:19.844Z,0
2017-07-28T02:27:21.218Z,0
2017-07-28T02:28:22.596Z,0
2017-07-28T02:29:23.974Z,0
2017-07-28T02:30:25.349Z,0
2017-07-28T02:31:26.728Z,0
2017-07-28T02:32:28.104Z,0
2017-07-28T02:33:29.492Z,0
2017-07-28T02:34:30.872Z,0
2017-07-28T02:35:32.246Z,0
2017-07-28T02:36:33.630Z,0
2017-07-28T02:37:35.012Z,0
2017-07-28T02:38:36.386Z,0
2017-07-28T02:39:37.761Z,0
2017-07-28T02:40:39.137Z,0
2017-07-28T02:41:40.531Z,0
2017-07-28T02:42:41.911Z,0
2017-07-28T02:43:43.289Z,0
2017-07-28T02:44:44.669Z,0
2017-07-28T02:45:46.043Z,0
2017-07-28T02:46:47.423Z,0
2017-07-28T02:47:48.803Z,0
2017-07-28T02:48:50.197Z,0
2017-07-28T02:49:51.576Z,0
2017-07-28T02:50:52.959Z,0
2017-07-28T02:51:54.330Z,0
2017-07-28T02:53:36.720Z,0
2017-07-28T02:54:38.098Z,0
2017-07-28T02:55:39.481Z,0
2017-07-28T02:56:40.862Z,0
2017-07-28T02:57:42.236Z,0
2017-07-28T02:58:43.616Z,0
2017-07-28T02:59:44.995Z,0
2017-07-28T03:01:27.371Z,0
2017-07-28T03:02:28.744Z,0
2017-07-28T03:03:30.150Z,0
2017-07-28T03:04:31.532Z,0
2017-07-28T03:05:32.914Z,0
2017-07-28T03:06:34.292Z,0
2017-07-28T03:07:35.669Z,0
2017-07-28T03:08:37.044Z,0
2017-07-28T03:09:38.423Z,0
2017-07-28T03:11:20.816Z,0
2017-07-28T03:12:22.181Z,0
2017-07-28T03:13:23.555Z,0
2017-07-28T03:14:24.940Z,0
2017-07-28T03:15:26.307Z,0
2017-07-28T03:16:27.695Z,0
2017-07-28T03:17:29.076Z,0
2017-07-28T03:18:30.456Z,0
2017-07-28T03:19:31.828Z,0
2017-07-28T03:20:33.204Z,0
2017-07-28T03:21:34.580Z,0
2017-07-28T03:22:35.959Z,0
2017-07-28T03:23:37.339Z,0
2017-07-28T03:24:38.714Z,0
2017-07-28T03:25:40.106Z,0
2017-07-28T03:26:41.484Z,0
2017-07-28T03:27:42.865Z,0
2017-07-28T03:28:44.239Z,0
2017-07-28T03:29:45.628Z,0
2017-07-28T03:30:47.003Z,0
2017-07-28T03:32:28.379Z,0
2017-07-28T03:33:29.765Z,0
2017-07-28T03:34:52.764Z,0
2017-07-28T03:35:54.139Z,0
2017-07-28T03:36:55.519Z,0
2017-07-28T03:37:56.894Z,0
2017-07-28T03:38:58.273Z,5
2017-07-28T03:39:59.656Z,5
2017-07-28T03:41:01.036Z,5
2017-07-28T03:42:02.425Z,5
2017-07-28T03:43:03.799Z,5
2017-07-28T03:44:05.183Z,5
2017-07-28T03:45:06.562Z,5
2017-07-28T03:46:07.940Z,5
2017-07-28T03:47:09.328Z,10
2017-07-28T03:48:51.729Z,10
2017-07-28T03:49:53.111Z,10
2017-07-28T03:50:54.498Z,10
2017-07-28T03:51:55.877Z,10
2017-07-28T03:52:57.287Z,15
2017-07-28T03:53:58.669Z,15
2017-07-28T03:55:00.051Z,15
2017-07-28T03:56:01.431Z,15
2017-07-28T03:57:02.808Z,15
2017-07-28T03:58:45.178Z,20
2017-07-28T03:59:46.555Z,20
2017-07-28T04:00:47.936Z,20
2017-07-28T04:01:49.325Z,25
2017-07-28T04:02:50.706Z,25
2017-07-28T04:03:52.082Z,25
2017-07-28T04:04:53.466Z,25
2017-07-28T04:05:54.870Z,30
2017-07-28T04:06:56.249Z,30
2017-07-28T04:07:57.626Z,30
2017-07-28T04:08:59.006Z,35
2017-07-28T04:10:00.394Z,35
2017-07-28T04:11:01.783Z,35
2017-07-28T04:12:03.155Z,35
2017-07-28T04:13:04.539Z,35
2017-07-28T04:14:05.917Z,35
2017-07-28T04:15:07.298Z,35
2017-07-28T04:16:08.674Z,40
2017-07-28T04:17:10.061Z,40
2017-07-28T04:18:11.450Z,45
2017-07-28T04:19:12.833Z,55
2017-07-28T04:20:14.214Z,55
2017-07-28T04:21:15.596Z,55
2017-07-28T04:22:16.978Z,55
2017-07-28T04:23:59.368Z,60
2017-07-28T04:25:00.755Z,60
2017-07-28T04:26:02.136Z,65
2017-07-28T04:27:03.523Z,65
2017-07-28T04:28:04.907Z,65
2017-07-28T04:29:06.305Z,60
2017-07-28T04:30:07.671Z,65
2017-07-28T04:31:09.057Z,65
2017-07-28T04:32:10.456Z,65
2017-07-28T04:33:11.830Z,60
2017-07-28T04:34:13.213Z,60
2017-07-28T04:35:14.599Z,55
2017-07-28T04:36:56.990Z,60
2017-07-28T04:37:58.371Z,75
2017-07-28T04:38:59.756Z,85
2017-07-28T04:40:01.136Z,80
2017-07-28T04:41:03.017Z,85
2017-07-28T04:42:04.406Z,85
2017-07-28T04:43:05.793Z,90
2017-07-28T04:44:07.176Z,90
2017-07-28T04:45:08.556Z,95
2017-07-28T04:46:09.935Z,95
2017-07-28T04:47:11.323Z,100
2017-07-28T04:48:12.701Z,100
2017-07-28T04:49:14.098Z,100
2017-07-28T04:50:15.466Z,105
2017-07-28T04:51:16.853Z,115
2017-07-28T04:52:18.231Z,120
2017-07-28T04:53:19.632Z,120
2017-07-28T04:55:02.014Z,125
2017-07-28T04:56:03.395Z,150
2017-07-28T04:57:04.785Z,135
2017-07-28T04:58:06.162Z,140
2017-07-28T04:59:07.545Z,125
2017-07-28T05:00:08.929Z,115
2017-07-28T05:01:10.317Z,120
2017-07-28T05:02:11.704Z,145
2017-07-28T05:03:13.084Z,175
2017-07-28T05:04:14.485Z,145
2017-07-28T05:05:15.866Z,200
2017-07-28T05:06:58.261Z,175
2017-07-28T05:07:59.644Z,160
2017-07-28T05:09:01.024Z,145
2017-07-28T05:10:02.405Z,145
2017-07-28T05:11:03.827Z,150
2017-07-28T05:12:05.216Z,155
2017-07-28T05:13:06.599Z,160
2017-07-28T05:14:48.995Z,175
2017-07-28T05:15:50.387Z,200
2017-07-28T05:16:51.765Z,235
2017-07-28T05:17:53.144Z,225
2017-07-28T05:18:54.533Z,195
2017-07-28T05:19:55.918Z,190
2017-07-28T05:20:57.299Z,205
2017-07-28T05:21:58.687Z,215
2017-07-28T05:23:00.078Z,210
2017-07-28T05:24:01.496Z,205
2017-07-28T05:25:02.933Z,200
2017-07-28T05:26:04.364Z,220
2017-07-28T05:27:05.753Z,210
2017-07-28T05:28:07.140Z,200
2017-07-28T05:29:08.526Z,270
2017-07-28T05:30:09.911Z,240
2017-07-28T05:31:11.337Z,310
2017-07-28T05:32:12.749Z,310
2017-07-28T05:33:14.133Z,295
2017-07-28T05:34:15.526Z,250
2017-07-28T05:35:16.958Z,280
2017-07-28T05:36:18.390Z,320
2017-07-28T05:37:19.798Z,355
2017-07-28T05:38:21.220Z,375
2017-07-28T05:40:03.598Z,395
2017-07-28T05:41:04.994Z,345
2017-07-28T05:42:06.381Z,310
2017-07-28T05:43:07.762Z,370
2017-07-28T05:44:09.149Z,340
2017-07-28T05:45:10.547Z,330
2017-07-28T05:46:11.927Z,230
2017-07-28T05:47:13.348Z,205
2017-07-28T05:48:14.707Z,210
2017-07-28T05:49:16.105Z,235
2017-07-28T05:50:17.482Z,235
2017-07-28T05:51:59.865Z,240
2017-07-28T05:53:01.256Z,275
2017-07-28T05:54:02.638Z,215
2017-07-28T05:55:04.022Z,210
2017-07-28T05:56:05.455Z,195
2017-07-28T05:57:06.839Z,200
2017-07-28T05:58:08.225Z,175
2017-07-28T05:59:09.629Z,190
2017-07-28T06:00:11.000Z,215
2017-07-28T06:01:52.385Z,235
2017-07-28T06:02:53.769Z,235
2017-07-28T06:04:16.776Z,230
2017-07-28T06:05:18.157Z,250
2017-07-28T06:06:19.543Z,265
2017-07-28T06:07:20.928Z,270
2017-07-28T06:08:22.316Z,320
2017-07-28T06:09:23.701Z,375
2017-07-28T06:10:25.098Z,380
2017-07-28T06:12:07.494Z,480
2017-07-28T06:13:08.878Z,290
2017-07-28T06:14:10.263Z,300
2017-07-28T06:15:11.651Z,315
2017-07-28T06:16:13.035Z,370
2017-07-28T06:17:14.423Z,410
2017-07-28T06:18:15.827Z,455
2017-07-28T06:19:17.220Z,610
2017-07-28T06:20:18.608Z,450
2017-07-28T06:21:19.998Z,595
2017-07-28T06:22:21.384Z,415
2017-07-28T06:23:22.779Z,405
2017-07-28T06:24:24.171Z,410
2017-07-28T06:25:25.560Z,415
2017-07-28T06:26:26.949Z,385
2017-07-28T06:27:28.336Z,395
2017-07-28T06:28:29.723Z,430
2017-07-28T06:29:31.115Z,420
2017-07-28T06:30:32.504Z,425
2017-07-28T06:31:33.891Z,415
2017-07-28T06:32:35.281Z,450
2017-07-28T06:33:36.674Z,460
2017-07-28T06:34:38.058Z,460
2017-07-28T06:36:19.438Z,505
2017-07-28T06:37:20.828Z,535
2017-07-28T06:38:43.821Z,495
2017-07-28T06:39:45.210Z,440
2017-07-28T06:40:46.601Z,455
2017-07-28T06:41:47.985Z,465
2017-07-28T06:42:49.374Z,460
2017-07-28T06:43:50.762Z,485
2017-07-28T06:44:52.154Z,495
2017-07-28T06:45:53.551Z,455
2017-07-28T06:46:54.941Z,470
2017-07-28T06:47:56.328Z,480
2017-07-28T06:49:38.720Z,470
2017-07-28T06:50:40.123Z,510
2017-07-28T06:51:41.511Z,460
2017-07-28T06:52:42.898Z,515
2017-07-28T06:53:44.284Z,530
2017-07-28T06:54:45.692Z,500
2017-07-28T06:55:47.080Z,475
2017-07-28T06:56:48.468Z,460
2017-07-28T06:57:49.862Z,475
2017-07-28T06:58:51.241Z,440
2017-07-28T06:59:52.633Z,455
2017-07-28T07:00:54.028Z,485
2017-07-28T07:01:55.420Z,495
2017-07-28T07:02:56.828Z,530
2017-07-28T07:03:58.236Z,510
2017-07-28T07:05:40.632Z,545
2017-07-28T07:06:42.019Z,570
2017-07-28T07:07:43.412Z,505
2017-07-28T07:08:44.796Z,550
2017-07-28T07:09:46.215Z,610
2017-07-28T07:10:47.603Z,615
2017-07-28T07:11:48.998Z,580
2017-07-28T07:12:50.389Z,620
2017-07-28T07:13:51.777Z,575
2017-07-28T07:14:53.164Z,770
2017-07-28T07:15:54.538Z,510
2017-07-28T07:16:55.944Z,545
2017-07-28T07:17:57.334Z,465
2017-07-28T07:18:58.724Z,445
2017-07-28T07:20:00.124Z,440
2017-07-28T07:21:01.511Z,430
2017-07-28T07:22:02.899Z,435
2017-07-28T07:23:04.287Z,415
2017-07-28T07:24:05.700Z,415
2017-07-28T07:25:07.090Z,485
2017-07-28T07:26:08.479Z,535
2017-07-28T07:27:49.874Z,510
2017-07-28T07:28:51.263Z,490
2017-07-28T07:29:52.649Z,455
2017-07-28T07:30:54.035Z,370
2017-07-28T07:31:55.435Z,325
2017-07-28T07:32:56.815Z,240
2017-07-28T07:33:58.203Z,245
2017-07-28T07:34:59.600Z,320
2017-07-28T07:36:00.995Z,370
2017-07-28T07:37:02.380Z,395
2017-07-28T07:38:03.766Z,425
2017-07-28T07:39:05.164Z,375
2017-07-28T07:40:06.550Z,415
2017-07-28T07:41:07.942Z,505
2017-07-28T07:42:09.327Z,545
2017-07-28T07:43:10.719Z,595
2017-07-28T07:44:12.100Z,620
2017-07-28T07:45:13.491Z,670
2017-07-28T07:46:14.884Z,705
2017-07-28T07:47:16.270Z,740
2017-07-28T07:48:17.659Z,700
2017-07-28T07:49:19.050Z,910
2017-07-28T07:50:20.439Z,975
2017-07-28T07:52:02.816Z,930
2017-07-28T07:53:04.201Z,860
2017-07-28T07:54:05.592Z,830
2017-07-28T07:55:06.981Z,855
2017-07-28T07:56:08.373Z,895
2017-07-28T07:57:09.762Z,905
2017-07-28T07:58:11.151Z,865
2017-07-28T07:59:12.542Z,880
2017-07-28T08:00:13.928Z,905
2017-07-28T08:01:15.325Z,925
2017-07-28T08:02:16.718Z,950
2017-07-28T08:03:59.108Z,995
2017-07-28T08:05:00.508Z,960
2017-07-28T08:06:01.897Z,935
2017-07-28T08:07:03.288Z,885
2017-07-28T08:08:04.673Z,835
2017-07-28T08:09:06.068Z,770
2017-07-28T08:10:07.460Z,680
2017-07-28T08:11:08.852Z,650
2017-07-28T08:12:10.247Z,650
2017-07-28T08:13:11.638Z,760
2017-07-28T08:14:13.024Z,920
2017-07-28T08:15:14.416Z,990
2017-07-28T08:16:15.816Z,940
2017-07-28T08:17:17.204Z,970
2017-07-28T08:18:18.592Z,815
2017-07-28T08:19:19.980Z,785
2017-07-28T08:20:21.374Z,695
2017-07-28T08:21:22.761Z,790
2017-07-28T08:22:24.154Z,895
2017-07-28T08:23:25.549Z,975
2017-07-28T08:24:26.942Z,855
2017-07-28T08:25:28.333Z,725
2017-07-28T08:26:29.724Z,565
2017-07-28T08:27:31.113Z,475
2017-07-28T08:28:32.541Z,415
2017-07-28T08:29:33.932Z,400
2017-07-28T08:30:35.332Z,495
2017-07-28T08:31:36.735Z,390
2017-07-28T08:32:38.136Z,495
2017-07-28T08:33:39.515Z,635
2017-07-28T08:34:40.908Z,710
2017-07-28T08:35:42.294Z,710
2017-07-28T08:36:43.689Z,905
2017-07-28T08:37:45.087Z,1165
2017-07-28T08:38:46.479Z,2330
2017-07-28T08:39:47.876Z,895
2017-07-28T08:40:49.267Z,805
2017-07-28T08:41:50.663Z,730
2017-07-28T08:42:52.052Z,690
2017-07-28T08:43:53.446Z,675
2017-07-28T08:44:54.841Z,820
2017-07-28T08:45:56.235Z,900
2017-07-28T08:46:57.629Z,935
2017-07-28T08:47:59.015Z,945
2017-07-28T08:49:00.414Z,755
2017-07-28T08:50:01.810Z,845
2017-07-28T08:51:44.205Z,730
2017-07-28T08:52:45.597Z,1100
2017-07-28T08:53:46.985Z,1180
2017-07-28T08:54:48.376Z,975
2017-07-28T08:55:49.766Z,815
2017-07-28T08:56:51.161Z,855
2017-07-28T08:57:52.557Z,890
2017-07-28T08:58:53.946Z,930
2017-07-28T08:59:55.344Z,1215
2017-07-28T09:00:56.729Z,1255
2017-07-28T09:01:58.121Z,1090
2017-07-28T09:02:59.511Z,1045
2017-07-28T09:04:00.903Z,1200
2017-07-28T09:05:02.297Z,1170
2017-07-28T09:06:03.694Z,1190
2017-07-28T09:07:46.082Z,1070
2017-07-28T09:08:47.472Z,1095
2017-07-28T09:09:48.866Z,1210
2017-07-28T09:10:50.263Z,1235
2017-07-28T09:11:51.667Z,1135
2017-07-28T09:12:53.054Z,1015
2017-07-28T09:13:54.450Z,985
2017-07-28T09:14:55.871Z,1025
2017-07-28T09:15:57.240Z,1065
2017-07-28T09:16:58.635Z,1200
2017-07-28T09:18:00.040Z,1135
2017-07-28T09:19:01.442Z,1020
2017-07-28T09:20:02.832Z,945
2017-07-28T09:21:04.220Z,935
2017-07-28T09:22:05.646Z,905
2017-07-28T09:23:07.039Z,865
2017-07-28T09:24:08.429Z,855
2017-07-28T09:25:09.842Z,705
2017-07-28T09:26:11.214Z,665
2017-07-28T09:27:12.608Z,890
2017-07-28T09:28:14.003Z,950
2017-07-28T09:29:15.403Z,1015
2017-07-28T09:30:16.816Z,1070
2017-07-28T09:31:59.210Z,1280
2017-07-28T09:33:00.633Z,1150
2017-07-28T09:34:02.028Z,1150
2017-07-28T09:35:03.421Z,1655
2017-07-28T09:36:05.295Z,1285
2017-07-28T09:37:06.688Z,1610
2017-07-28T09:38:08.085Z,1405
2017-07-28T09:39:09.482Z,1415
2017-07-28T09:40:10.877Z,1450
2017-07-28T09:41:12.267Z,1330
2017-07-28T09:42:13.664Z,1500
2017-07-28T09:43:15.067Z,1430
2017-07-28T09:44:56.483Z,1505
2017-07-28T09:45:57.864Z,1180
2017-07-28T09:47:20.910Z,1280
2017-07-28T09:48:22.301Z,1020
2017-07-28T09:49:23.694Z,1120
2017-07-28T09:50:25.092Z,1080
2017-07-28T09:51:26.490Z,1035
2017-07-28T09:52:27.886Z,1115
2017-07-28T09:53:29.280Z,935
2017-07-28T09:54:30.675Z,585
2017-07-28T09:55:32.071Z,420
2017-07-28T09:56:33.463Z,450
2017-07-28T09:57:34.858Z,550
2017-07-28T09:58:36.250Z,580
2017-07-28T09:59:37.648Z,670
2017-07-28T10:00:39.043Z,650
2017-07-28T10:01:40.478Z,465
2017-07-28T10:02:41.855Z,360
2017-07-28T10:03:43.250Z,340
2017-07-28T10:04:44.643Z,345
2017-07-28T10:05:46.041Z,445
2017-07-28T10:06:47.435Z,580
2017-07-28T10:07:48.829Z,885
2017-07-28T10:08:50.221Z,925
2017-07-28T10:09:51.613Z,825
2017-07-28T10:10:53.002Z,660
2017-07-28T10:11:54.395Z,620
2017-07-28T10:12:55.792Z,560
2017-07-28T10:13:57.178Z,345
2017-07-28T10:14:58.568Z,415
2017-07-28T10:15:59.963Z,710
2017-07-28T10:17:01.357Z,1135
2017-07-28T10:18:02.749Z,1310
2017-07-28T10:19:04.136Z,655
2017-07-28T10:20:05.534Z,555
2017-07-28T10:21:06.925Z,475
2017-07-28T10:22:08.325Z,510
2017-07-28T10:23:09.708Z,575
2017-07-28T10:24:11.106Z,490
2017-07-28T10:25:12.493Z,515
2017-07-28T10:26:13.886Z,690
2017-07-28T10:27:15.274Z,4965
2017-07-28T10:28:16.673Z,1295
2017-07-28T10:29:18.073Z,2680
2017-07-28T10:30:19.464Z,1490
2017-07-28T10:31:20.882Z,4515
2017-07-28T10:32:22.275Z,5005
2017-07-28T10:33:23.665Z,3395
2017-07-28T10:34:25.090Z,1970
2017-07-28T10:35:26.489Z,5280
2017-07-28T10:37:08.884Z,1950
2017-07-28T10:38:10.275Z,1300
2017-07-28T10:39:11.672Z,4855
2017-07-28T10:40:13.065Z,1650
2017-07-28T10:41:14.467Z,3730
2017-07-28T10:42:15.880Z,4175
2017-07-28T10:43:17.287Z,2650
2017-07-28T10:44:18.686Z,2495
2017-07-28T10:45:20.104Z,2775
2017-07-28T10:46:21.500Z,2465
2017-07-28T10:47:22.897Z,1570
2017-07-28T10:48:24.297Z,3125
2017-07-28T10:49:25.709Z,2560
2017-07-28T10:50:27.106Z,2885
2017-07-28T10:51:28.505Z,4360
2017-07-28T10:52:29.900Z,2595
2017-07-28T10:53:31.307Z,2085
2017-07-28T10:54:32.710Z,4550
2017-07-28T10:55:34.106Z,2505
2017-07-28T10:56:35.505Z,2185
2017-07-28T10:57:36.905Z,3275
2017-07-28T10:58:38.309Z,5200
2017-07-28T10:59:39.704Z,3060
2017-07-28T11:00:41.103Z,4680
2017-07-28T11:01:42.502Z,2700
2017-07-28T11:02:43.903Z,3200
2017-07-28T11:03:45.315Z,5510
2017-07-28T11:04:46.721Z,4275
2017-07-28T11:05:48.122Z,5095
2017-07-28T11:06:49.520Z,4930
2017-07-28T11:07:50.930Z,5085
2017-07-28T11:08:52.326Z,785
2017-07-28T11:09:53.729Z,5315
2017-07-28T11:10:55.132Z,5405
2017-07-28T11:11:56.541Z,5545
2017-07-28T11:12:57.944Z,2920
2017-07-28T11:13:59.347Z,5720
2017-07-28T11:15:00.763Z,5685
2017-07-28T11:16:02.161Z,1945
2017-07-28T11:17:03.568Z,5895
2017-07-28T11:18:04.995Z,6135
2017-07-28T11:19:06.395Z,6185
2017-07-28T11:20:07.802Z,3780
2017-07-28T11:21:09.202Z,1505
2017-07-28T11:22:10.604Z,1400
2017-07-28T11:23:12.022Z,1405
2017-07-28T11:24:13.416Z,1605
2017-07-28T11:25:55.818Z,935
2017-07-28T11:26:57.218Z,870
2017-07-28T11:27:58.615Z,740
2017-07-28T11:29:00.016Z,680
2017-07-28T11:30:01.419Z,620
2017-07-28T11:31:02.817Z,575
2017-07-28T11:32:04.220Z,545
2017-07-28T11:33:05.617Z,585
2017-07-28T11:34:07.015Z,605
2017-07-28T11:35:08.439Z,580
2017-07-28T11:36:09.828Z,580
2017-07-28T11:37:11.224Z,565
2017-07-28T11:38:53.642Z,605
2017-07-28T11:39:55.037Z,635
2017-07-28T11:40:56.434Z,690
2017-07-28T11:41:57.827Z,620
2017-07-28T11:42:59.229Z,560
2017-07-28T11:44:00.633Z,575
2017-07-28T11:45:02.032Z,550
2017-07-28T11:46:03.438Z,470
2017-07-28T11:47:04.833Z,440
2017-07-28T11:48:06.228Z,430
2017-07-28T11:49:07.623Z,435
2017-07-28T11:50:09.015Z,410
2017-07-28T11:51:10.403Z,405
2017-07-28T11:52:11.805Z,400
2017-07-28T11:53:13.196Z,380
2017-07-28T11:54:14.592Z,435
2017-07-28T11:55:15.990Z,455
2017-07-28T11:56:17.383Z,440
2017-07-28T11:57:18.776Z,420
2017-07-28T11:58:20.175Z,455
2017-07-28T11:59:21.572Z,570
2017-07-28T12:00:22.969Z,785
2017-07-28T12:01:24.353Z,900
2017-07-28T12:02:25.755Z,855
2017-07-28T12:03:27.133Z,775
2017-07-28T12:04:28.524Z,685
2017-07-28T12:05:29.941Z,610
2017-07-28T12:06:31.312Z,585
2017-07-28T12:07:32.701Z,560
2017-07-28T12:08:34.095Z,555
2017-07-28T12:09:35.497Z,545
2017-07-28T12:10:36.891Z,545
2017-07-28T12:11:38.283Z,475
2017-07-28T12:12:39.677Z,425
2017-07-28T12:13:41.068Z,405
2017-07-28T12:14:42.459Z,405
2017-07-28T12:15:43.847Z,455
2017-07-28T12:16:45.228Z,560
2017-07-28T12:17:46.629Z,570
2017-07-28T12:18:48.021Z,520
2017-07-28T12:19:49.410Z,475
2017-07-28T12:20:50.801Z,440
2017-07-28T12:21:52.196Z,420
2017-07-28T12:22:53.584Z,400
2017-07-28T12:23:54.974Z,430
2017-07-28T12:24:56.370Z,420
2017-07-28T12:25:57.749Z,400
2017-07-28T12:27:40.161Z,400
2017-07-28T12:28:41.547Z,405
2017-07-28T12:29:42.933Z,475
2017-07-28T12:30:44.323Z,710
2017-07-28T12:31:45.744Z,1180
2017-07-28T12:32:47.133Z,2100
2017-07-28T12:33:48.527Z,3015
2017-07-28T12:34:49.920Z,3300
2017-07-28T12:36:31.309Z,3210
2017-07-28T12:37:32.701Z,4455
2017-07-28T12:38:34.095Z,3555
2017-07-28T12:39:35.494Z,2760
2017-07-28T12:40:36.885Z,1890
2017-07-28T12:41:38.280Z,1845
2017-07-28T12:42:39.676Z,1675
2017-07-28T12:43:41.081Z,2670
2017-07-28T12:44:42.469Z,2355
2017-07-28T12:45:43.869Z,3625
2017-07-28T12:46:45.267Z,3625
2017-07-28T12:47:46.664Z,4005
2017-07-28T12:48:48.064Z,4405
2017-07-28T12:49:49.462Z,3315
2017-07-28T12:50:50.867Z,3980
2017-07-28T12:51:52.270Z,2200
2017-07-28T12:52:53.665Z,905
2017-07-28T12:53:55.062Z,4405
2017-07-28T12:54:56.462Z,4215
2017-07-28T12:55:57.862Z,4545
2017-07-28T12:56:59.264Z,4385
2017-07-28T12:58:00.665Z,3440
2017-07-28T12:59:02.061Z,690
2017-07-28T13:00:03.457Z,640
2017-07-28T13:01:04.862Z,710
2017-07-28T13:02:06.274Z,775
2017-07-28T13:03:07.665Z,705
2017-07-28T13:04:09.064Z,935
2017-07-28T13:05:10.472Z,4260
2017-07-28T13:06:11.872Z,3760
2017-07-28T13:07:13.269Z,2845
2017-07-28T13:08:14.670Z,1220
2017-07-28T13:09:57.071Z,4315
2017-07-28T13:10:58.470Z,4095
2017-07-28T13:11:59.865Z,4085
2017-07-28T13:13:01.265Z,4090
2017-07-28T13:14:02.668Z,4145
2017-07-28T13:15:04.070Z,1865
2017-07-28T13:16:05.472Z,3720
2017-07-28T13:17:06.878Z,4195
2017-07-28T13:18:08.267Z,790
2017-07-28T13:19:09.678Z,605
2017-07-28T13:20:11.078Z,615
2017-07-28T13:21:12.493Z,515
2017-07-28T13:22:13.871Z,410
2017-07-28T13:23:15.269Z,415
2017-07-28T13:24:16.675Z,345
2017-07-28T13:25:18.071Z,325
2017-07-28T13:26:19.464Z,345
2017-07-28T13:27:20.864Z,330
2017-07-28T13:29:03.276Z,275
2017-07-28T13:30:04.671Z,235
2017-07-28T13:31:06.071Z,205
2017-07-28T13:32:07.467Z,170
2017-07-28T13:33:08.863Z,145
2017-07-28T13:34:10.256Z,110
2017-07-28T13:35:11.654Z,100
2017-07-28T13:36:13.046Z,85
2017-07-28T13:37:14.441Z,80
2017-07-28T13:38:15.847Z,90
2017-07-28T13:39:17.229Z,85
2017-07-28T13:40:18.620Z,95
2017-07-28T13:41:20.012Z,100
2017-07-28T13:42:21.415Z,110
2017-07-28T13:43:22.815Z,145
2017-07-28T13:44:24.203Z,205
2017-07-28T13:45:25.614Z,280
2017-07-28T13:46:27.016Z,390
2017-07-28T13:47:28.394Z,510
2017-07-28T13:48:29.786Z,655
2017-07-28T13:50:12.184Z,950
2017-07-28T13:51:13.577Z,1055
2017-07-28T13:52:14.964Z,930
2017-07-28T13:53:16.390Z,800
2017-07-28T13:54:17.778Z,880
2017-07-28T13:55:19.169Z,795
2017-07-28T13:56:20.572Z,560
2017-07-28T13:58:02.937Z,300
2017-07-28T13:59:04.323Z,225
2017-07-28T14:00:05.712Z,195
2017-07-28T14:01:07.108Z,185
2017-07-28T14:02:08.497Z,185
2017-07-28T14:03:09.886Z,200
2017-07-28T14:04:11.275Z,245
2017-07-28T14:05:12.663Z,320
2017-07-28T14:06:14.052Z,330
2017-07-28T14:07:15.442Z,280
2017-07-28T14:08:16.833Z,245
2017-07-28T14:09:18.225Z,250
2017-07-28T14:10:19.614Z,255
2017-07-28T14:11:21.012Z,265
2017-07-28T14:12:22.404Z,275
2017-07-28T14:13:23.838Z,295
2017-07-28T14:14:25.229Z,320
2017-07-28T14:15:26.630Z,325
2017-07-28T14:16:28.021Z,315
2017-07-28T14:17:29.411Z,330
2017-07-28T14:18:30.844Z,350
2017-07-28T14:19:32.246Z,400
2017-07-28T14:20:33.635Z,465
2017-07-28T14:21:35.023Z,565
2017-07-28T14:22:36.412Z,810
2017-07-28T14:23:37.804Z,1020
2017-07-28T14:24:39.198Z,1015
2017-07-28T14:25:40.588Z,945
2017-07-28T14:26:41.982Z,905
2017-07-28T14:27:43.371Z,925
2017-07-28T14:28:44.763Z,960
2017-07-28T14:29:46.176Z,910
2017-07-28T14:30:47.565Z,885
2017-07-28T14:31:48.958Z,825
2017-07-28T14:32:50.354Z,775
2017-07-28T14:33:51.740Z,740
2017-07-28T14:34:53.130Z,720
2017-07-28T14:35:54.524Z,640
2017-07-28T14:36:55.911Z,565
2017-07-28T14:37:57.303Z,500
2017-07-28T14:38:58.694Z,455
2017-07-28T14:40:00.092Z,440
2017-07-28T14:41:01.488Z,430
2017-07-28T14:42:02.866Z,420
2017-07-28T14:43:04.273Z,445
2017-07-28T14:44:05.662Z,515
2017-07-28T14:45:07.062Z,580
2017-07-28T14:46:08.452Z,635
2017-07-28T14:47:09.845Z,675